createdAt,value
2018-05-16T00:02:10.038Z,7.90
2018-05-16T00:04:37.041Z,8.53
2018-05-16T00:07:03.167Z,7.53
2018-05-16T00:09:29.145Z,7.70
2018-05-16T00:11:55.189Z,7.70
2018-05-16T00:14:21.192Z,7.97
2018-05-16T00:16:47.229Z,8.23
2018-05-16T00:19:13.265Z,8.10
2018-05-16T00:21:39.284Z,8.40
2018-05-16T00:24:05.264Z,8.23
2018-05-16T00:26:31.181Z,8.67
2018-05-16T00:28:57.158Z,8.03
2018-05-16T00:31:23.156Z,8.00
2018-05-16T00:33:49.169Z,8.40
2018-05-16T00:36:15.147Z,9.67
2018-05-16T00:38:41.136Z,8.83
2018-05-16T00:41:07.153Z,9.90
2018-05-16T00:43:33.151Z,8.60
2018-05-16T00:45:59.901Z,8.10
2018-05-16T00:48:25.948Z,8.57
2018-05-16T00:51:04.246Z,7.60
2018-05-16T00:53:30.314Z,8.80
2018-05-16T00:55:56.397Z,8.50
2018-05-16T00:58:22.371Z,8.97
2018-05-16T01:00:51.168Z,8.50
2018-05-16T01:03:17.176Z,8.87
2018-05-16T01:05:43.154Z,8.80
2018-05-16T01:08:09.246Z,9.27
2018-05-16T01:10:35.251Z,9.07
2018-05-16T01:13:01.251Z,8.20
2018-05-16T01:15:27.193Z,8.10
2018-05-16T01:17:53.292Z,8.03
2018-05-16T01:20:19.259Z,8.20
2018-05-16T01:22:45.284Z,8.27
2018-05-16T01:25:11.379Z,8.50
2018-05-16T01:27:37.377Z,8.63
2018-05-16T01:30:03.348Z,8.03
2018-05-16T01:32:29.346Z,8.50
2018-05-16T01:34:55.314Z,7.33
2018-05-16T01:37:21.355Z,8.70
2018-05-16T01:39:47.456Z,8.83
2018-05-16T01:42:13.444Z,8.70
2018-05-16T01:44:39.390Z,8.03
2018-05-16T01:47:06.957Z,8.20
2018-05-16T01:49:32.949Z,7.90
2018-05-16T01:51:59.293Z,8.10
2018-05-16T01:54:26.040Z,7.60
2018-05-16T01:56:52.081Z,8.27
2018-05-16T01:59:18.077Z,8.40
2018-05-16T02:01:44.055Z,8.70
2018-05-16T02:04:10.040Z,8.47
2018-05-16T02:06:36.115Z,8.27
2018-05-16T02:09:02.058Z,8.33
2018-05-16T02:11:28.105Z,8.40
2018-05-16T02:13:54.120Z,9.10
2018-05-16T02:16:20.094Z,7.70
2018-05-16T02:18:46.091Z,7.63
2018-05-16T02:21:12.107Z,8.77
2018-05-16T02:23:39.095Z,8.83
2018-05-16T02:26:05.119Z,8.70
2018-05-16T02:28:31.147Z,9.50
2018-05-16T02:30:57.171Z,9.63
2018-05-16T02:33:23.176Z,8.97
2018-05-16T02:35:49.201Z,8.90
2018-05-16T02:38:15.243Z,9.17
2018-05-16T02:40:41.182Z,9.13
2018-05-16T02:43:07.327Z,9.50
2018-05-16T02:45:33.307Z,12.80
2018-05-16T02:47:59.297Z,14.00
2018-05-16T02:50:25.314Z,14.57
2018-05-16T02:52:51.297Z,15.00
2018-05-16T02:55:17.280Z,16.93
2018-05-16T02:57:43.323Z,16.70
2018-05-16T03:00:09.280Z,16.13
2018-05-16T03:02:35.273Z,16.17
2018-05-16T03:05:01.271Z,14.87
2018-05-16T03:07:27.303Z,14.70
2018-05-16T03:09:53.264Z,14.73
2018-05-16T03:12:20.149Z,15.20
2018-05-16T03:14:46.131Z,13.37
2018-05-16T03:17:12.090Z,14.20
2018-05-16T03:19:38.187Z,14.47
2018-05-16T03:22:04.180Z,12.77
2018-05-16T03:24:30.198Z,11.50
2018-05-16T03:26:56.206Z,11.77
2018-05-16T03:29:22.215Z,12.00
2018-05-16T03:31:48.237Z,11.63
2018-05-16T03:34:14.204Z,12.80
2018-05-16T03:36:40.208Z,9.50
2018-05-16T03:39:06.166Z,10.10
2018-05-16T03:41:32.205Z,11.77
2018-05-16T03:43:58.194Z,10.83
2018-05-16T03:46:24.325Z,9.20
2018-05-16T03:48:50.290Z,10.20
2018-05-16T03:51:16.260Z,9.73
2018-05-16T03:53:42.350Z,9.57
2018-05-16T03:56:08.464Z,9.90
2018-05-16T03:58:47.373Z,9.40
2018-05-16T04:01:25.564Z,9.77
2018-05-16T04:04:04.357Z,9.60
2018-05-16T04:06:30.409Z,9.50
2018-05-16T04:08:56.454Z,10.07
2018-05-16T04:11:23.275Z,9.60
2018-05-16T04:13:49.273Z,9.90
2018-05-16T04:16:15.483Z,10.10
2018-05-16T04:18:41.507Z,9.50
2018-05-16T04:21:07.484Z,9.50
2018-05-16T04:23:33.544Z,9.80
2018-05-16T04:25:59.552Z,9.63
2018-05-16T04:28:25.951Z,9.20
2018-05-16T04:30:52.433Z,10.20
2018-05-16T04:33:18.663Z,10.97
2018-05-16T04:35:44.613Z,9.70
2018-05-16T04:38:11.347Z,9.93
2018-05-16T04:40:37.319Z,9.07
2018-05-16T04:43:03.318Z,9.87
2018-05-16T04:45:29.294Z,10.27
2018-05-16T04:47:56.259Z,11.27
2018-05-16T04:50:23.227Z,11.97
2018-05-16T04:52:49.341Z,10.20
2018-05-16T04:55:16.791Z,10.93
2018-05-16T04:57:42.793Z,11.70
2018-05-16T05:00:08.817Z,12.43
2018-05-16T05:02:34.806Z,11.60
2018-05-16T05:05:00.868Z,10.90
2018-05-16T05:07:26.865Z,10.67
2018-05-16T05:09:53.870Z,11.43
2018-05-16T05:12:19.852Z,10.80
2018-05-16T05:14:45.825Z,11.13
2018-05-16T05:17:11.808Z,11.90
2018-05-16T05:19:37.966Z,10.70
2018-05-16T05:22:03.963Z,10.00
2018-05-16T05:24:30.260Z,11.40
2018-05-16T05:26:56.506Z,11.40
2018-05-16T05:29:22.539Z,11.17
2018-05-16T05:31:49.508Z,11.93
2018-05-16T05:34:15.569Z,11.77
2018-05-16T05:36:41.593Z,11.43
2018-05-16T05:39:07.581Z,10.83
2018-05-16T05:41:33.608Z,11.50
2018-05-16T05:44:00.030Z,11.20
2018-05-16T05:46:26.056Z,11.80
2018-05-16T05:48:52.045Z,10.43
2018-05-16T05:51:19.919Z,11.40
2018-05-16T05:53:46.779Z,11.23
2018-05-16T05:56:13.603Z,12.10
2018-05-16T05:58:40.541Z,11.47
2018-05-16T06:01:06.581Z,10.80
2018-05-16T06:03:32.577Z,12.57
2018-05-16T06:05:58.560Z,11.07
2018-05-16T06:08:24.657Z,10.70
2018-05-16T06:10:50.704Z,10.10
2018-05-16T06:13:17.460Z,11.40
2018-05-16T06:15:44.058Z,11.80
2018-05-16T06:18:10.083Z,11.90
2018-05-16T06:20:36.193Z,11.10
2018-05-16T06:23:02.243Z,12.20
2018-05-16T06:25:28.333Z,11.57
2018-05-16T06:27:54.377Z,11.33
2018-05-16T06:30:20.398Z,11.53
2018-05-16T06:32:46.573Z,14.10
2018-05-16T06:35:12.616Z,12.07
2018-05-16T06:37:39.228Z,12.00
2018-05-16T06:40:05.221Z,11.40
2018-05-16T06:42:32.272Z,12.83
2018-05-16T06:44:58.299Z,11.10
2018-05-16T06:47:24.311Z,11.93
2018-05-16T06:49:51.053Z,12.53
2018-05-16T06:52:17.355Z,11.67
2018-05-16T06:54:45.101Z,18.67
2018-05-16T06:57:11.160Z,10.30
2018-05-16T06:59:37.368Z,11.53
2018-05-16T07:02:03.380Z,9.20
2018-05-16T07:04:29.447Z,8.80
2018-05-16T07:06:55.493Z,10.67
2018-05-16T07:09:21.557Z,9.63
2018-05-16T07:11:47.596Z,9.90
2018-05-16T07:14:13.773Z,9.97
2018-05-16T07:16:39.881Z,9.80
2018-05-16T07:19:05.984Z,10.73
2018-05-16T07:21:31.978Z,10.03
2018-05-16T07:23:58.071Z,10.90
2018-05-16T07:26:31.081Z,10.00
2018-05-16T07:28:57.128Z,9.90
2018-05-16T07:31:24.670Z,10.67
2018-05-16T07:33:50.759Z,9.80
2018-05-16T07:36:16.715Z,9.00
2018-05-16T07:38:42.734Z,9.17
2018-05-16T07:41:08.792Z,10.50
2018-05-16T07:43:34.812Z,9.50
2018-05-16T07:46:01.423Z,10.30
2018-05-16T07:48:27.575Z,10.80
2018-05-16T07:50:53.602Z,10.80
2018-05-16T07:53:20.151Z,12.67
2018-05-16T07:55:46.179Z,11.83
2018-05-16T07:58:12.157Z,11.50
2018-05-16T08:00:38.199Z,10.77
2018-05-16T08:03:04.201Z,10.43
2018-05-16T08:05:30.198Z,10.30
2018-05-16T08:07:56.432Z,10.53
2018-05-16T08:10:22.464Z,10.30
2018-05-16T08:12:48.515Z,9.90
2018-05-16T08:15:14.479Z,10.40
2018-05-16T08:17:40.477Z,11.47
2018-05-16T08:20:06.493Z,10.77
2018-05-16T08:22:32.462Z,10.43
2018-05-16T08:24:58.527Z,9.67
2018-05-16T08:27:24.556Z,10.47
2018-05-16T08:29:50.579Z,10.40
2018-05-16T08:32:16.648Z,10.03
2018-05-16T08:34:42.611Z,10.27
2018-05-16T08:37:08.578Z,9.53
2018-05-16T08:39:34.601Z,10.00
2018-05-16T08:42:00.663Z,9.43
2018-05-16T08:44:26.620Z,10.23
2018-05-16T08:46:52.639Z,9.93
2018-05-16T08:49:18.851Z,10.17
2018-05-16T08:51:45.773Z,9.73
2018-05-16T08:54:11.892Z,9.00
2018-05-16T08:56:37.857Z,10.00
2018-05-16T08:59:03.862Z,8.80
2018-05-16T09:01:29.852Z,9.90
2018-05-16T09:03:55.839Z,9.27
2018-05-16T09:06:22.830Z,9.10
2018-05-16T09:08:48.887Z,9.07
2018-05-16T09:11:14.884Z,9.70
2018-05-16T09:13:40.878Z,9.03
2018-05-16T09:16:06.887Z,9.30
2018-05-16T09:18:32.873Z,8.50
2018-05-16T09:20:58.868Z,9.50
2018-05-16T09:23:24.933Z,9.03
2018-05-16T09:25:51.023Z,8.93
2018-05-16T09:28:17.066Z,9.47
2018-05-16T09:30:43.071Z,9.77
2018-05-16T09:33:09.113Z,8.90
2018-05-16T09:35:35.116Z,8.60
2018-05-16T09:38:01.135Z,8.40
2018-05-16T09:40:31.203Z,7.43
2018-05-16T09:42:57.259Z,8.27
2018-05-16T09:45:23.264Z,9.00
2018-05-16T09:47:49.992Z,9.03
2018-05-16T09:50:16.082Z,8.17
2018-05-16T09:52:42.079Z,11.00
2018-05-16T09:55:08.456Z,9.07
2018-05-16T09:57:34.434Z,8.67
2018-05-16T10:00:01.121Z,9.10
2018-05-16T10:02:27.090Z,8.67
2018-05-16T10:04:53.209Z,8.40
2018-05-16T10:07:19.178Z,8.97
2018-05-16T10:09:45.322Z,9.00
2018-05-16T10:12:11.353Z,9.80
2018-05-16T10:14:37.380Z,9.20
2018-05-16T10:17:03.593Z,8.33
2018-05-16T10:19:29.612Z,8.47
2018-05-16T10:21:56.427Z,8.80
2018-05-16T10:24:22.442Z,8.60
2018-05-16T10:26:48.586Z,10.03
2018-05-16T10:29:14.624Z,9.60
2018-05-16T10:31:40.680Z,10.53
2018-05-16T10:34:07.514Z,9.50
2018-05-16T10:36:34.490Z,10.07
2018-05-16T10:39:00.607Z,9.40
2018-05-16T10:41:27.562Z,11.03
2018-05-16T10:43:53.675Z,8.57
2018-05-16T10:46:19.697Z,9.50
2018-05-16T10:48:45.720Z,10.07
2018-05-16T10:51:12.360Z,10.27
2018-05-16T10:53:38.449Z,10.43
2018-05-16T10:56:05.249Z,11.23
2018-05-16T10:58:31.263Z,9.80
2018-05-16T11:00:58.732Z,10.57
2018-05-16T11:03:25.066Z,9.97
2018-05-16T11:05:51.768Z,10.43
2018-05-16T11:08:18.038Z,11.80
2018-05-16T11:10:44.170Z,11.17
2018-05-16T11:13:10.325Z,9.57
2018-05-16T11:15:36.342Z,11.70
2018-05-16T11:18:03.026Z,10.70
2018-05-16T11:20:29.008Z,10.20
2018-05-16T11:22:54.993Z,10.93
2018-05-16T11:25:20.973Z,10.20
2018-05-16T11:27:46.936Z,9.40
2018-05-16T11:30:12.992Z,10.80
2018-05-16T11:32:39.133Z,9.97
2018-05-16T11:35:05.550Z,8.77
2018-05-16T11:37:31.528Z,9.40
2018-05-16T11:39:57.516Z,10.07
2018-05-16T11:42:23.608Z,10.37
2018-05-16T11:44:49.548Z,9.20
2018-05-16T11:47:15.569Z,9.17
2018-05-16T11:49:41.599Z,8.87
2018-05-16T11:52:07.585Z,8.73
2018-05-16T11:54:33.545Z,8.93
2018-05-16T11:56:59.577Z,8.73
2018-05-16T11:59:25.584Z,10.47
2018-05-16T12:01:51.725Z,8.23
2018-05-16T12:04:17.738Z,9.07
2018-05-16T12:06:43.822Z,8.63
2018-05-16T12:09:10.165Z,8.80
2018-05-16T12:11:36.442Z,9.00
2018-05-16T12:14:02.486Z,9.27
2018-05-16T12:16:28.837Z,8.93
2018-05-16T12:18:54.861Z,8.37
2018-05-16T12:21:20.976Z,8.03
2018-05-16T12:23:47.351Z,8.20
2018-05-16T12:26:14.272Z,7.90
2018-05-16T12:28:40.342Z,7.70
2018-05-16T12:31:06.354Z,7.30
2018-05-16T12:33:32.392Z,8.00
2018-05-16T12:35:58.369Z,8.37
2018-05-16T12:38:24.441Z,8.20
2018-05-16T12:40:50.553Z,8.10
2018-05-16T12:43:17.505Z,7.70
2018-05-16T12:45:43.480Z,7.47
2018-05-16T12:48:09.625Z,8.30
2018-05-16T12:50:35.654Z,8.27
2018-05-16T12:53:01.716Z,7.63
2018-05-16T12:55:27.773Z,8.17
2018-05-16T12:57:53.851Z,8.57
2018-05-16T13:00:19.873Z,7.87
2018-05-16T13:02:45.943Z,9.67
2018-05-16T13:05:12.010Z,8.97
2018-05-16T13:07:37.961Z,9.73
2018-05-16T13:10:03.931Z,7.97
2018-05-16T13:12:29.911Z,8.43
2018-05-16T13:14:55.940Z,8.83
2018-05-16T13:17:21.968Z,8.90
2018-05-16T13:19:48.062Z,8.93
2018-05-16T13:22:14.151Z,8.70
2018-05-16T13:24:40.295Z,8.47
2018-05-16T13:27:06.262Z,8.40
2018-05-16T13:29:32.271Z,8.37
2018-05-16T13:32:05.271Z,8.57
2018-05-16T13:34:31.343Z,7.20
2018-05-16T13:36:57.318Z,7.27
2018-05-16T13:39:23.799Z,7.97
2018-05-16T13:41:50.019Z,7.83
2018-05-16T13:44:16.079Z,7.80
2018-05-16T13:46:42.704Z,7.60
2018-05-16T13:49:08.690Z,7.30
2018-05-16T13:51:34.723Z,7.43
2018-05-16T13:54:01.017Z,7.93
2018-05-16T13:56:27.088Z,8.00
2018-05-16T13:58:53.067Z,8.53
2018-05-16T14:01:19.037Z,7.57
2018-05-16T14:03:45.072Z,9.30
2018-05-16T14:06:11.137Z,8.07
2018-05-16T14:08:37.160Z,7.60
2018-05-16T14:11:03.172Z,9.00
2018-05-16T14:13:29.193Z,8.90
2018-05-16T14:15:56.010Z,9.43
2018-05-16T14:18:21.976Z,8.63
2018-05-16T14:20:47.957Z,9.73
2018-05-16T14:23:13.921Z,9.00
2018-05-16T14:25:39.897Z,9.63
2018-05-16T14:28:05.875Z,9.77
2018-05-16T14:30:31.899Z,10.40
2018-05-16T14:32:57.869Z,9.90
2018-05-16T14:35:23.892Z,9.83
2018-05-16T14:37:49.868Z,10.90
2018-05-16T14:40:15.840Z,10.97
2018-05-16T14:42:41.936Z,10.00
2018-05-16T14:45:07.908Z,11.40
2018-05-16T14:47:33.995Z,11.50
2018-05-16T14:49:59.990Z,11.30
2018-05-16T14:52:26.605Z,11.97
2018-05-16T14:54:52.887Z,12.73
2018-05-16T14:57:18.966Z,12.90
2018-05-16T14:59:44.996Z,12.20
2018-05-16T15:02:11.072Z,13.90
2018-05-16T15:04:37.080Z,13.97
2018-05-16T15:07:03.589Z,13.90
2018-05-16T15:09:30.373Z,13.10
2018-05-16T15:11:56.476Z,11.30
2018-05-16T15:14:22.543Z,11.90
2018-05-16T15:16:49.582Z,12.13
2018-05-16T15:19:15.545Z,11.67
2018-05-16T15:21:41.657Z,10.97
2018-05-16T15:24:07.839Z,10.70
2018-05-16T15:26:33.911Z,9.13
2018-05-16T15:29:00.603Z,10.03
2018-05-16T15:31:26.826Z,10.70
2018-05-16T15:33:53.925Z,10.77
2018-05-16T15:36:20.534Z,9.90
2018-05-16T15:38:47.123Z,10.27
2018-05-16T15:41:13.315Z,9.70
2018-05-16T15:43:39.397Z,9.83
2018-05-16T15:46:05.401Z,8.80
2018-05-16T15:48:32.519Z,10.37
2018-05-16T16:07:44.306Z,7.40
2018-05-16T16:10:10.350Z,7.87
2018-05-16T16:12:37.467Z,8.13
2018-05-16T16:15:03.516Z,8.30
2018-05-16T16:17:30.447Z,7.60
2018-05-16T16:19:56.364Z,7.97
2018-05-16T16:22:23.344Z,8.03
2018-05-16T16:24:51.196Z,7.43
2018-05-16T16:27:17.196Z,7.00
2018-05-16T16:29:43.350Z,7.37
2018-05-16T16:32:09.433Z,6.80
2018-05-16T16:34:35.564Z,6.60
2018-05-16T16:37:01.681Z,6.90
2018-05-16T16:39:27.749Z,7.17
2018-05-16T16:41:53.776Z,7.30
2018-05-16T16:44:19.792Z,6.40
2018-05-16T16:46:45.828Z,6.30
2018-05-16T16:49:11.884Z,7.20
2018-05-16T16:51:38.384Z,8.40
2018-05-16T16:54:04.491Z,6.77
2018-05-16T16:56:31.052Z,6.73
2018-05-16T16:58:57.175Z,7.80
2018-05-16T17:01:23.297Z,10.83
2018-05-16T17:03:49.441Z,8.77
2018-05-16T17:06:15.454Z,8.07
2018-05-16T17:08:41.556Z,9.07
2018-05-16T17:11:08.487Z,9.37
2018-05-16T17:13:35.927Z,10.40
2018-05-16T17:16:03.344Z,7.93
2018-05-16T17:18:30.513Z,9.90
2018-05-16T17:20:56.560Z,9.90
2018-05-16T17:23:22.746Z,9.50
2018-05-16T17:25:48.823Z,9.10
2018-05-16T17:28:16.429Z,9.00
2018-05-16T17:30:42.441Z,9.33
2018-05-16T17:33:08.582Z,10.33
2018-05-16T17:35:35.126Z,9.97
2018-05-16T17:38:01.470Z,9.93
2018-05-16T17:40:27.469Z,9.60
2018-05-16T17:42:54.021Z,11.00
2018-05-16T17:45:20.067Z,11.07
2018-05-16T17:47:46.235Z,13.10
2018-05-16T17:50:12.248Z,10.90
2018-05-16T17:52:38.272Z,11.33
2018-05-16T17:55:04.609Z,11.30
2018-05-16T17:57:30.639Z,15.43
2018-05-16T17:59:56.705Z,18.10
2018-05-16T18:02:22.689Z,11.43
2018-05-16T18:04:48.729Z,12.43
2018-05-16T18:07:14.716Z,16.60
2018-05-16T18:09:40.875Z,11.50
2018-05-16T18:12:06.879Z,9.83
2018-05-16T18:17:40.039Z,26.40
2018-05-16T18:20:06.064Z,12.07
2018-05-16T18:22:32.128Z,11.10
2018-05-16T18:24:58.136Z,10.03
2018-05-16T18:27:24.236Z,10.30
2018-05-16T18:29:50.296Z,9.97
2018-05-16T18:32:16.316Z,9.40
2018-05-16T18:34:43.466Z,10.63
2018-05-16T18:37:09.477Z,10.87
2018-05-16T18:39:35.499Z,11.80
2018-05-16T18:42:01.547Z,12.00
2018-05-16T18:44:27.580Z,10.17
2018-05-16T18:46:53.594Z,10.60
2018-05-16T18:49:19.585Z,10.53
2018-05-16T18:51:45.623Z,10.60
2018-05-16T18:54:11.647Z,10.50
2018-05-16T18:56:37.748Z,11.00
2018-05-16T18:59:03.771Z,10.30
2018-05-16T19:01:29.841Z,11.50
2018-05-16T19:03:55.932Z,10.27
2018-05-16T19:06:21.932Z,10.30
2018-05-16T19:08:49.741Z,11.10
2018-05-16T19:11:15.981Z,11.47
2018-05-16T19:13:45.827Z,10.40
2018-05-16T19:16:12.504Z,13.30
2018-05-16T19:18:38.562Z,13.20
2018-05-16T19:21:05.122Z,11.97
2018-05-16T19:23:31.132Z,12.00
2018-05-16T19:25:57.284Z,11.23
2018-05-16T19:28:24.404Z,10.43
2018-05-16T19:30:50.476Z,11.47
2018-05-16T19:33:16.510Z,10.87
2018-05-16T19:35:42.636Z,12.37
2018-05-16T19:38:08.682Z,11.30
2018-05-16T19:40:34.880Z,10.87
2018-05-16T19:43:00.780Z,10.50
2018-05-16T19:45:26.772Z,11.30
2018-05-16T19:47:53.175Z,11.83
2018-05-16T19:50:19.962Z,10.90
2018-05-16T19:52:46.221Z,11.57
2018-05-16T19:55:12.409Z,11.07
2018-05-16T19:57:38.720Z,11.70
2018-05-16T20:00:04.650Z,11.90
2018-05-16T20:02:30.974Z,11.30
2018-05-16T20:04:57.594Z,12.13
2018-05-16T20:07:23.689Z,11.90
2018-05-16T20:09:50.246Z,11.67
2018-05-16T20:12:16.504Z,11.50
2018-05-16T20:14:45.576Z,11.40
2018-05-16T20:17:11.676Z,11.80
2018-05-16T20:33:51.481Z,11.10
2018-05-16T20:36:20.974Z,11.97
2018-05-16T20:38:47.431Z,11.30
2018-05-16T20:41:14.378Z,11.13
2018-05-16T20:43:42.001Z,12.40
2018-05-16T20:46:10.440Z,11.70
2018-05-16T20:48:36.546Z,10.83
2018-05-16T20:51:03.429Z,12.30
2018-05-16T20:53:30.666Z,11.43
2018-05-16T20:55:57.100Z,10.97
2018-05-16T20:58:23.834Z,11.90
2018-05-16T21:00:50.858Z,11.37
2018-05-16T21:03:20.341Z,11.57
2018-05-16T21:05:46.546Z,11.20
2018-05-16T21:08:13.024Z,11.63
2018-05-16T21:10:39.511Z,11.30
2018-05-16T21:13:05.587Z,12.87
2018-05-16T21:15:31.689Z,12.10
2018-05-16T21:17:57.813Z,11.07
2018-05-16T21:20:24.945Z,11.57
2018-05-16T21:22:52.910Z,11.60
2018-05-16T21:25:19.189Z,12.37
2018-05-16T21:27:45.235Z,12.57
2018-05-16T21:30:11.221Z,11.83
2018-05-16T21:32:37.208Z,11.27
2018-05-16T21:35:03.205Z,11.40
2018-05-16T21:37:29.262Z,11.90
2018-05-16T21:39:55.438Z,12.53
2018-05-16T21:42:21.571Z,13.00
2018-05-16T21:44:47.577Z,11.70
2018-05-16T21:47:13.618Z,11.73
2018-05-16T21:49:39.606Z,11.23
2018-05-16T21:52:05.625Z,11.60
2018-05-16T21:54:32.001Z,11.70
2018-05-16T21:56:58.070Z,11.57
2018-05-16T21:59:24.940Z,12.20
2018-05-16T22:01:51.188Z,12.23
2018-05-16T22:04:17.206Z,12.00
2018-05-16T22:06:43.449Z,13.20
2018-05-16T22:09:10.119Z,13.27
2018-05-16T22:11:36.146Z,13.60
2018-05-16T22:14:02.149Z,14.07
2018-05-16T22:16:29.521Z,15.07
2018-05-16T22:18:55.596Z,15.20
2018-05-16T22:21:21.628Z,16.73
2018-05-16T22:23:47.613Z,15.37
2018-05-16T22:26:13.588Z,12.77
2018-05-16T22:28:39.733Z,14.87
2018-05-16T22:31:11.807Z,16.43
2018-05-16T22:33:43.760Z,15.27
2018-05-16T22:36:15.742Z,18.50
2018-05-16T22:38:47.774Z,16.37
2018-05-16T22:41:19.906Z,16.77
2018-05-16T22:43:47.772Z,17.33
2018-05-16T22:46:15.580Z,18.03
2018-05-16T22:48:41.590Z,17.63
2018-05-16T22:51:07.599Z,16.50
2018-05-16T22:53:40.444Z,15.47
2018-05-16T22:56:06.424Z,16.47
2018-05-16T22:58:32.527Z,16.03
2018-05-16T23:00:58.511Z,16.73
2018-05-16T23:03:25.372Z,17.47
2018-05-16T23:05:51.422Z,18.70
2018-05-16T23:08:17.392Z,17.60
2018-05-16T23:10:43.384Z,18.70
2018-05-16T23:13:09.906Z,17.63
2018-05-16T23:15:35.928Z,18.83
2018-05-16T23:18:01.999Z,19.80
2018-05-16T23:20:27.997Z,19.07
2018-05-16T23:22:54.043Z,19.63
2018-05-16T23:25:20.079Z,18.40
2018-05-16T23:27:46.066Z,20.70
2018-05-16T23:30:12.219Z,21.77
2018-05-16T23:32:38.315Z,21.20
2018-05-16T23:35:05.003Z,20.80
2018-05-16T23:37:30.995Z,20.40
2018-05-16T23:39:57.063Z,22.37
2018-05-16T23:42:23.062Z,21.47
2018-05-16T23:44:49.145Z,22.00
2018-05-16T23:47:15.182Z,22.00
2018-05-16T23:49:41.371Z,23.30
2018-05-16T23:52:07.433Z,25.07
2018-05-16T23:54:33.504Z,24.23
2018-05-16T23:56:59.522Z,23.17
2018-05-16T23:59:25.528Z,22.50
